createdAt,value
2023-05-20T00:00:06.745Z,17.65
2023-05-20T00:03:12.878Z,25.45
2023-05-20T00:05:58.910Z,25.27
2023-05-20T00:08:44.967Z,31.27
2023-05-20T00:11:32.114Z,14.57
2023-05-20T00:14:18.054Z,15.95
2023-05-20T00:17:03.994Z,25.02
2023-05-20T00:19:49.765Z,18.13
2023-05-20T00:22:35.466Z,21.75
2023-05-20T00:25:21.109Z,22.30
2023-05-20T00:28:07.128Z,22.15
2023-05-20T00:30:54.742Z,22.40
2023-05-20T00:33:40.138Z,22.60
2023-05-20T00:36:26.379Z,12.32
2023-05-20T00:39:12.223Z,20.10
2023-05-20T00:42:03.417Z,20.13
2023-05-20T00:44:49.060Z,14.10
2023-05-20T00:47:36.774Z,19.05
2023-05-20T00:50:22.499Z,9.73
2023-05-20T00:53:12.630Z,11.07
2023-05-20T00:55:58.439Z,16.98
2023-05-20T00:58:44.310Z,20.85
2023-05-20T01:01:29.844Z,13.48
2023-05-20T01:04:16.323Z,20.00
2023-05-20T01:07:04.818Z,12.73
2023-05-20T01:09:52.497Z,26.33
2023-05-20T01:12:49.975Z,16.08
2023-05-20T01:15:36.524Z,17.70
2023-05-20T01:18:25.639Z,17.17
2023-05-20T01:21:12.420Z,18.92
2023-05-20T01:23:58.229Z,18.10
2023-05-20T01:26:48.492Z,15.63
2023-05-20T01:29:34.242Z,13.17
2023-05-20T01:32:26.625Z,17.15
2023-05-20T01:35:12.391Z,17.33
2023-05-20T01:37:58.956Z,13.93
2023-05-20T01:40:46.106Z,13.05
2023-05-20T01:43:32.184Z,16.27
2023-05-20T01:46:17.721Z,16.05
2023-05-20T01:49:03.807Z,14.40
2023-05-20T01:51:49.419Z,13.68
2023-05-20T01:54:35.841Z,17.83
2023-05-20T01:57:22.247Z,12.68
2023-05-20T02:00:09.860Z,10.48
2023-05-20T02:03:03.757Z,23.00
2023-05-20T02:05:49.812Z,12.05
2023-05-20T02:08:35.824Z,11.80
2023-05-20T02:11:22.287Z,12.02
2023-05-20T02:14:07.859Z,13.10
2023-05-20T02:16:54.084Z,11.35
2023-05-20T02:19:40.046Z,16.83
2023-05-20T02:22:25.815Z,11.68
2023-05-20T02:25:11.714Z,10.75
2023-05-20T02:27:57.801Z,12.10
2023-05-20T02:30:43.331Z,15.05
2023-05-20T02:33:29.149Z,11.38
2023-05-20T02:36:15.268Z,14.70
2023-05-20T02:39:01.296Z,12.15
2023-05-20T02:41:47.365Z,12.55
2023-05-20T02:44:33.640Z,10.43
2023-05-20T02:47:19.213Z,17.92
2023-05-20T02:50:07.930Z,23.83
2023-05-20T02:52:53.849Z,15.90
2023-05-20T02:55:40.697Z,13.82
2023-05-20T02:58:27.795Z,17.23
2023-05-20T03:01:13.678Z,12.13
2023-05-20T03:03:59.491Z,18.67
2023-05-20T03:06:46.591Z,15.20
2023-05-20T03:09:34.076Z,13.57
2023-05-20T03:12:19.791Z,16.35
2023-05-20T03:15:06.225Z,13.55
2023-05-20T03:17:54.439Z,12.95
2023-05-20T03:20:41.662Z,14.48
2023-05-20T03:23:28.028Z,13.75
2023-05-20T03:26:13.692Z,14.48
2023-05-20T03:28:59.432Z,14.88
2023-05-20T03:31:46.478Z,13.00
2023-05-20T03:34:32.432Z,17.15
2023-05-20T03:37:19.270Z,16.95
2023-05-20T03:40:06.266Z,14.43
2023-05-20T03:42:53.168Z,21.08
2023-05-20T03:45:40.356Z,18.77
2023-05-20T03:48:27.076Z,13.77
2023-05-20T03:51:13.105Z,15.05
2023-05-20T03:53:59.569Z,13.10
2023-05-20T03:56:47.079Z,14.02
2023-05-20T03:59:32.797Z,16.60
2023-05-20T04:02:18.918Z,24.10
2023-05-20T04:05:04.938Z,20.15
2023-05-20T04:07:51.670Z,18.23
2023-05-20T04:10:41.600Z,16.23
2023-05-20T04:13:27.724Z,24.75
2023-05-20T04:16:13.766Z,14.60
2023-05-20T04:19:01.064Z,16.40
2023-05-20T04:21:46.981Z,13.38
2023-05-20T04:24:33.868Z,13.55
2023-05-20T04:27:20.398Z,15.15
2023-05-20T04:30:07.125Z,13.18
2023-05-20T04:32:57.415Z,12.40
2023-05-20T04:35:44.248Z,12.20
2023-05-20T04:38:30.513Z,15.30
2023-05-20T04:41:17.192Z,15.48
2023-05-20T04:44:03.996Z,11.30
2023-05-20T04:46:41.828Z,14.05
2023-05-20T04:49:29.967Z,11.82
2023-05-20T04:52:15.636Z,9.60
2023-05-20T04:55:01.938Z,17.80
2023-05-20T05:01:04.465Z,12.50
2023-05-20T05:03:50.777Z,12.43
2023-05-20T05:06:36.870Z,14.75
2023-05-20T05:09:22.708Z,11.18
2023-05-20T05:12:08.619Z,14.52
2023-05-20T05:14:54.442Z,12.23
2023-05-20T05:17:40.807Z,15.18
2023-05-20T05:20:26.774Z,14.60
2023-05-20T05:23:13.033Z,13.57
2023-05-20T05:25:58.837Z,11.07
2023-05-20T05:28:44.880Z,13.80
2023-05-20T05:31:30.920Z,13.70
2023-05-20T05:34:17.333Z,11.00
2023-05-20T05:37:02.959Z,12.23
2023-05-20T05:39:49.541Z,15.30
2023-05-20T05:42:35.706Z,23.70
2023-05-20T05:45:21.777Z,15.98
2023-05-20T05:48:07.893Z,21.35
2023-05-20T05:50:53.841Z,17.00
2023-05-20T05:53:41.215Z,13.88
2023-05-20T05:56:26.637Z,17.48
2023-05-20T05:59:13.052Z,22.20
2023-05-20T06:01:59.801Z,15.35
2023-05-20T06:04:45.899Z,14.00
2023-05-20T06:07:31.325Z,18.52
2023-05-20T06:10:17.046Z,15.63
2023-05-20T06:13:03.492Z,16.70
2023-05-20T06:15:51.014Z,14.02
2023-05-20T06:18:37.553Z,13.20
2023-05-20T06:21:24.830Z,13.20
2023-05-20T06:24:10.848Z,12.90
2023-05-20T06:26:57.648Z,14.77
2023-05-20T06:29:43.929Z,19.05
2023-05-20T06:32:30.637Z,15.10
2023-05-20T06:35:17.250Z,17.50
2023-05-20T06:38:03.129Z,14.13
2023-05-20T06:40:50.016Z,17.27
2023-05-20T06:43:36.195Z,12.82
2023-05-20T06:46:41.353Z,19.67
2023-05-20T06:49:31.887Z,11.48
2023-05-20T06:52:17.417Z,16.40
2023-05-20T06:55:05.736Z,15.63
2023-05-20T06:57:52.720Z,17.30
2023-05-20T07:00:39.319Z,13.48
2023-05-20T07:03:25.442Z,15.68
2023-05-20T07:06:11.847Z,13.15
2023-05-20T07:08:57.635Z,16.33
2023-05-20T07:11:44.464Z,13.25
2023-05-20T07:14:30.943Z,16.65
2023-05-20T07:17:16.946Z,12.30
2023-05-20T07:20:05.183Z,11.07
2023-05-20T07:22:51.415Z,12.60
2023-05-20T07:25:50.778Z,13.43
2023-05-20T07:28:36.712Z,15.35
2023-05-20T07:31:24.282Z,13.05
2023-05-20T07:34:10.625Z,18.55
2023-05-20T07:36:57.070Z,13.13
2023-05-20T07:39:43.672Z,13.98
2023-05-20T07:42:29.454Z,15.63
2023-05-20T07:45:18.687Z,13.30
2023-05-20T07:48:05.374Z,10.77
2023-05-20T07:50:51.672Z,13.55
2023-05-20T07:53:38.359Z,11.40
2023-05-20T07:56:24.767Z,15.35
2023-05-20T07:59:11.053Z,17.58
2023-05-20T08:02:01.686Z,13.20
2023-05-20T08:04:48.077Z,12.77
2023-05-20T08:07:34.083Z,10.40
2023-05-20T08:10:20.414Z,11.75
2023-05-20T08:13:06.685Z,11.55
2023-05-20T08:15:54.739Z,14.30
2023-05-20T08:18:40.827Z,12.40
2023-05-20T08:21:27.237Z,14.50
2023-05-20T08:24:13.188Z,15.73
2023-05-20T08:26:59.487Z,15.07
2023-05-20T08:29:46.476Z,11.20
2023-05-20T08:32:32.523Z,15.30
2023-05-20T08:35:18.856Z,12.75
2023-05-20T08:38:04.380Z,13.55
2023-05-20T08:40:56.925Z,15.90
2023-05-20T08:43:43.955Z,12.50
2023-05-20T08:46:31.144Z,15.18
2023-05-20T08:49:17.652Z,12.57
2023-05-20T08:52:06.383Z,15.77
2023-05-20T08:54:52.061Z,11.98
2023-05-20T08:57:38.410Z,10.90
2023-05-20T09:00:27.431Z,13.80
2023-05-20T09:03:13.574Z,17.50
2023-05-20T09:06:06.994Z,18.90
2023-05-20T09:08:52.812Z,16.70
2023-05-20T09:11:40.366Z,17.05
2023-05-20T09:14:28.507Z,16.13
2023-05-20T09:17:14.379Z,17.83
2023-05-20T09:20:00.464Z,14.27
2023-05-20T09:22:46.659Z,18.88
2023-05-20T09:25:33.105Z,14.40
2023-05-20T09:28:26.885Z,16.17
2023-05-20T09:31:14.792Z,18.08
2023-05-20T09:34:01.337Z,15.35
2023-05-20T09:36:50.703Z,10.95
2023-05-20T09:39:59.617Z,15.40
2023-05-20T09:42:56.774Z,16.25
2023-05-20T09:45:42.881Z,14.15
2023-05-20T09:48:33.906Z,18.67
2023-05-20T09:51:23.090Z,12.18
2023-05-20T09:54:09.556Z,18.08
2023-05-20T09:56:57.423Z,16.27
2023-05-20T09:59:44.162Z,16.05
2023-05-20T10:02:30.085Z,11.63
2023-05-20T10:05:19.300Z,17.20
2023-05-20T10:08:18.168Z,13.32
2023-05-20T10:11:04.149Z,11.80
2023-05-20T10:14:03.909Z,14.05
2023-05-20T10:17:37.943Z,14.38
2023-05-20T10:20:23.673Z,14.57
2023-05-20T10:23:09.458Z,22.38
2023-05-20T10:25:56.592Z,16.30
2023-05-20T10:28:43.285Z,18.33
2023-05-20T10:31:29.451Z,16.63
2023-05-20T10:34:19.446Z,12.93
2023-05-20T10:37:05.168Z,12.18
2023-05-20T10:39:51.165Z,13.05
2023-05-20T10:42:36.617Z,12.45
2023-05-20T10:45:27.668Z,18.13
2023-05-20T10:48:24.196Z,16.92
2023-05-20T10:51:13.839Z,14.95
2023-05-20T10:53:59.624Z,12.45
2023-05-20T10:56:53.589Z,15.40
2023-05-20T10:59:39.724Z,16.00
2023-05-20T11:02:29.096Z,14.70
2023-05-20T11:05:17.136Z,15.35
2023-05-20T11:08:14.022Z,16.35
2023-05-20T11:11:14.484Z,14.80
2023-05-20T11:14:00.779Z,16.02
2023-05-20T11:16:52.398Z,13.05
2023-05-20T11:19:38.411Z,15.73
2023-05-20T11:22:23.713Z,15.02
2023-05-20T11:25:09.882Z,16.75
2023-05-20T11:27:55.990Z,14.38
2023-05-20T11:30:43.214Z,14.32
2023-05-20T11:33:30.576Z,15.20
2023-05-20T11:36:27.553Z,19.83
2023-05-20T11:39:15.006Z,14.75
2023-05-20T11:42:01.316Z,19.52
2023-05-20T11:44:48.813Z,16.33
2023-05-20T11:47:34.946Z,15.18
2023-05-20T11:50:21.001Z,19.80
2023-05-20T11:53:09.132Z,16.58
2023-05-20T11:55:59.219Z,17.08
2023-05-20T11:58:45.906Z,15.98
2023-05-20T12:01:41.062Z,15.52
2023-05-20T12:04:27.304Z,16.40
2023-05-20T12:07:15.669Z,20.00
2023-05-20T12:10:01.918Z,15.93
2023-05-20T12:12:47.837Z,17.58
2023-05-20T12:15:33.811Z,19.92
2023-05-20T12:18:19.376Z,18.67
2023-05-20T12:21:05.831Z,24.50
2023-05-20T12:23:57.466Z,32.28
2023-05-20T12:26:43.647Z,17.73
2023-05-20T12:29:29.489Z,19.77
2023-05-20T12:32:15.454Z,18.23
2023-05-20T12:35:01.352Z,19.50
2023-05-20T12:37:47.419Z,17.23
2023-05-20T12:40:33.438Z,18.33
2023-05-20T12:43:19.426Z,18.88
2023-05-20T12:46:05.188Z,15.27
2023-05-20T12:48:51.373Z,18.02
2023-05-20T12:51:37.267Z,14.85
2023-05-20T12:54:23.594Z,15.23
2023-05-20T12:57:09.368Z,15.13
2023-05-20T12:59:55.449Z,15.25
2023-05-20T13:02:42.240Z,14.68
2023-05-20T13:05:28.926Z,16.15
2023-05-20T13:08:14.900Z,15.10
2023-05-20T13:11:01.261Z,14.65
2023-05-20T13:13:47.535Z,14.75
2023-05-20T13:16:33.781Z,16.65
2023-05-20T13:19:20.617Z,15.32
2023-05-20T13:22:06.936Z,23.52
2023-05-20T13:24:52.795Z,16.27
2023-05-20T13:27:38.503Z,15.88
2023-05-20T13:30:24.641Z,16.70
2023-05-20T13:33:11.646Z,16.40
2023-05-20T13:35:57.066Z,17.40
2023-05-20T13:38:43.087Z,15.68
2023-05-20T13:41:28.508Z,16.83
2023-05-20T13:44:14.508Z,17.75
2023-05-20T13:47:00.158Z,16.25
2023-05-20T13:49:46.028Z,16.45
2023-05-20T13:52:31.595Z,17.65
2023-05-20T13:55:18.051Z,15.48
2023-05-20T13:58:05.643Z,16.02
2023-05-20T14:00:52.167Z,17.13
2023-05-20T14:03:40.059Z,17.05
2023-05-20T14:06:26.939Z,17.02
2023-05-20T14:09:12.621Z,20.73
2023-05-20T14:11:58.217Z,16.05
2023-05-20T14:14:43.926Z,14.45
2023-05-20T14:17:29.821Z,16.65
2023-05-20T14:20:16.354Z,18.80
2023-05-20T14:23:02.530Z,16.83
2023-05-20T14:25:48.147Z,14.93
2023-05-20T14:28:34.621Z,14.70
2023-05-20T14:31:20.600Z,16.73
2023-05-20T14:34:06.883Z,18.25
2023-05-20T14:36:52.413Z,18.35
2023-05-20T14:39:39.418Z,20.02
2023-05-20T14:42:24.752Z,24.65
2023-05-20T14:45:10.887Z,20.58
2023-05-20T14:47:56.744Z,20.23
2023-05-20T14:50:42.848Z,21.17
2023-05-20T14:53:28.377Z,18.60
2023-05-20T14:56:14.102Z,21.80
2023-05-20T14:58:59.963Z,15.77
2023-05-20T15:01:46.322Z,21.23
2023-05-20T15:04:32.936Z,16.40
2023-05-20T15:07:19.002Z,20.58
2023-05-20T15:10:05.169Z,25.33
2023-05-20T15:12:51.386Z,17.40
2023-05-20T15:15:37.090Z,16.80
2023-05-20T15:18:23.248Z,19.80
2023-05-20T15:21:09.110Z,22.60
2023-05-20T15:23:55.028Z,23.02
2023-05-20T15:26:41.192Z,21.35
2023-05-20T15:29:27.073Z,20.48
2023-05-20T15:32:12.674Z,18.25
2023-05-20T15:34:59.812Z,22.27
2023-05-20T15:37:45.631Z,20.85
2023-05-20T15:40:32.014Z,17.08
2023-05-20T15:43:18.715Z,17.75
2023-05-20T15:46:04.791Z,15.70
2023-05-20T15:48:51.515Z,21.85
2023-05-20T15:51:37.501Z,24.60
2023-05-20T15:54:23.167Z,18.77
2023-05-20T15:57:51.007Z,14.73
2023-05-20T16:01:00.476Z,14.52
2023-05-20T16:03:46.297Z,15.95
2023-05-20T16:06:32.586Z,18.17
2023-05-20T16:09:18.504Z,18.02
2023-05-20T16:12:05.298Z,21.38
2023-05-20T16:14:51.191Z,30.52
2023-05-20T16:17:37.350Z,30.83
2023-05-20T16:20:23.325Z,17.92
2023-05-20T16:23:08.858Z,15.90
2023-05-20T16:25:54.585Z,20.65
2023-05-20T16:28:40.035Z,15.57
2023-05-20T16:31:26.662Z,27.33
2023-05-20T16:34:13.110Z,15.63
2023-05-20T16:36:59.601Z,19.90
2023-05-20T16:39:45.567Z,16.70
2023-05-20T16:42:31.297Z,20.80
2023-05-20T16:45:16.873Z,20.67
2023-05-20T16:48:02.865Z,18.08
2023-05-20T16:50:48.488Z,16.17
2023-05-20T16:53:34.530Z,18.75
2023-05-20T16:56:21.983Z,17.38
2023-05-20T16:59:08.052Z,19.15
2023-05-20T17:01:53.987Z,14.48
2023-05-20T17:04:39.917Z,14.77
2023-05-20T17:07:25.789Z,14.02
2023-05-20T17:10:12.096Z,14.85
2023-05-20T17:12:57.758Z,17.02
2023-05-20T17:15:43.613Z,13.35
2023-05-20T17:18:29.936Z,15.50
2023-05-20T17:21:17.088Z,12.95
2023-05-20T17:24:02.744Z,16.50
2023-05-20T17:26:48.710Z,16.10
2023-05-20T17:29:34.241Z,16.33
2023-05-20T17:32:20.610Z,14.20
2023-05-20T17:35:08.162Z,17.83
2023-05-20T17:37:55.092Z,14.95
2023-05-20T17:40:41.022Z,16.17
2023-05-20T17:43:27.281Z,15.35
2023-05-20T17:46:13.234Z,19.27
2023-05-20T17:48:58.969Z,15.07
2023-05-20T17:51:46.113Z,14.65
2023-05-20T17:54:31.966Z,17.80
2023-05-20T17:57:17.917Z,26.02
2023-05-20T18:00:05.673Z,15.82
2023-05-20T18:02:56.272Z,21.60
2023-05-20T18:05:42.346Z,17.73
2023-05-20T18:08:27.897Z,19.13
2023-05-20T18:11:13.366Z,18.25
2023-05-20T18:14:02.855Z,20.38
2023-05-20T18:16:49.795Z,19.15
2023-05-20T18:19:35.545Z,20.00
2023-05-20T18:22:21.411Z,22.05
2023-05-20T18:25:07.471Z,21.67
2023-05-20T18:27:53.252Z,24.23
2023-05-20T18:30:39.708Z,17.27
2023-05-20T18:33:25.871Z,20.23
2023-05-20T18:36:12.632Z,19.48
2023-05-20T18:38:59.155Z,19.83
2023-05-20T18:41:47.183Z,21.02
2023-05-20T18:44:33.397Z,20.23
2023-05-20T18:47:19.024Z,17.83
2023-05-20T18:50:05.689Z,18.30
2023-05-20T18:52:51.661Z,21.75
2023-05-20T18:55:37.501Z,22.90
2023-05-20T18:58:22.901Z,21.42
2023-05-20T19:01:09.227Z,23.58
2023-05-20T19:03:54.794Z,21.77
2023-05-20T19:06:40.847Z,24.15
2023-05-20T19:09:26.657Z,22.65
2023-05-20T19:12:13.132Z,23.98
2023-05-20T19:14:59.028Z,22.50
2023-05-20T19:17:45.112Z,24.52
2023-05-20T19:20:30.766Z,23.67
2023-05-20T19:23:17.110Z,20.75
2023-05-20T19:26:02.893Z,22.15
2023-05-20T19:28:48.628Z,25.48
2023-05-20T19:31:34.100Z,23.23
2023-05-20T19:34:20.588Z,24.90
2023-05-20T19:37:06.842Z,25.23
2023-05-20T19:39:53.447Z,24.40
2023-05-20T19:42:39.344Z,21.25
2023-05-20T19:45:26.027Z,25.70
2023-05-20T19:48:11.848Z,35.22
2023-05-20T19:50:58.321Z,29.08
2023-05-20T19:53:44.472Z,27.80
2023-05-20T19:56:30.439Z,33.75
2023-05-20T19:59:16.401Z,27.90
2023-05-20T20:02:03.131Z,29.55
2023-05-20T20:04:49.606Z,30.08
2023-05-20T20:07:35.662Z,28.77
2023-05-20T20:10:21.291Z,27.60
2023-05-20T20:13:08.051Z,27.88
2023-05-20T20:15:54.073Z,30.80
2023-05-20T20:18:40.606Z,34.58
2023-05-20T20:21:26.437Z,35.88
2023-05-20T20:24:13.032Z,81.85
2023-05-20T20:26:59.770Z,49.25
2023-05-20T20:29:46.053Z,41.45
2023-05-20T20:32:32.175Z,47.42
2023-05-20T20:35:18.104Z,38.00
2023-05-20T20:38:10.106Z,40.03
2023-05-20T20:40:56.495Z,42.40
2023-05-20T20:43:44.893Z,28.58
2023-05-20T20:46:31.333Z,28.50
2023-05-20T20:49:19.004Z,24.90
2023-05-20T20:52:05.241Z,29.60
2023-05-20T20:54:51.088Z,28.17
2023-05-20T20:57:37.101Z,28.67
2023-05-20T21:00:24.437Z,28.73
2023-05-20T21:03:11.914Z,28.92
2023-05-20T21:05:57.932Z,26.17
2023-05-20T21:08:43.950Z,27.77
2023-05-20T21:11:29.611Z,27.88
2023-05-20T21:14:15.895Z,27.20
2023-05-20T21:17:01.629Z,26.85
2023-05-20T21:19:47.812Z,26.65
2023-05-20T21:22:33.451Z,29.88
2023-05-20T21:29:52.746Z,30.50
2023-05-20T21:32:38.841Z,28.73
2023-05-20T21:35:24.985Z,30.73
2023-05-20T21:38:11.082Z,29.73
2023-05-20T21:40:58.868Z,32.97
2023-05-20T21:43:44.631Z,34.00
2023-05-20T21:46:30.881Z,36.45
2023-05-20T21:49:16.908Z,34.08
2023-05-20T21:52:03.155Z,37.85
2023-05-20T21:54:49.229Z,39.08
2023-05-20T21:57:35.247Z,39.25
2023-05-20T22:00:21.115Z,33.47
2023-05-20T22:03:07.579Z,34.42
2023-05-20T22:05:53.318Z,36.42
2023-05-20T22:08:49.364Z,42.13
2023-05-20T22:11:34.842Z,41.58
2023-05-20T22:14:20.783Z,43.03
2023-05-20T22:17:06.692Z,43.53
2023-05-20T22:19:54.097Z,40.35
2023-05-20T22:22:39.509Z,36.65
2023-05-20T22:25:25.721Z,35.53
2023-05-20T22:28:11.730Z,32.10
2023-05-20T22:31:18.719Z,30.50
2023-05-20T22:34:05.499Z,30.80
2023-05-20T22:36:53.535Z,34.85
2023-05-20T22:39:39.360Z,31.40
2023-05-20T22:42:26.125Z,37.47
2023-05-20T22:45:37.505Z,36.53
2023-05-20T22:48:23.856Z,31.40
2023-05-20T22:51:09.705Z,30.70
2023-05-20T22:53:56.017Z,31.38
2023-05-20T22:56:56.747Z,34.60
2023-05-20T22:59:42.979Z,32.25
2023-05-20T23:03:07.907Z,31.20
2023-05-20T23:05:53.964Z,34.63
2023-05-20T23:09:05.242Z,33.13
2023-05-20T23:11:50.811Z,34.28
2023-05-20T23:20:29.629Z,35.20
2023-05-20T23:28:59.097Z,34.67
